AXI200 LPPD-LPPT
Flight info
| Callsign | AXI200 |
|---|---|
| Flight time | 1h 45m |
| Altitude | 45000 |
| Route | JETAF DCT BEKUN DCT 38N020W DCT KOMUT/N0481F450 DCT TABAX DCT LAZET |
| Aircraft | C700/M-SDFGHJ1J7M3RWYZ/LB1D1 |
Departure
| Time | 2026-04-28 15:37 |
|---|---|
| Airport | João Paulo II Airport (LPPD) |
Arrival
| Time | 2026-04-28 17:23 |
|---|---|
| Airport | Lisbon Humberto Delgado Airport (LPPT) |
| Time | Latitude | Longitude | Altitude | Speed | Heading |
|---|---|---|---|---|---|
| 2026-04-28 15:30 | 37.74131 | -25.70066 | 234 ft | 0 kts | 76° |
| 2026-04-28 15:34 | 37.74133 | -25.70064 | 234 ft | 1 kts | 53° |
| 2026-04-28 15:34 | 37.74148 | -25.70070 | 235 ft | 5 kts | 334° |
| 2026-04-28 15:35 | 37.74198 | -25.70110 | 238 ft | 12 kts | 299° |
| 2026-04-28 15:35 | 37.74316 | -25.70230 | 240 ft | 16 kts | 3° |
| 2026-04-28 15:35 | 37.74376 | -25.70322 | 245 ft | 14 kts | 287° |
| 2026-04-28 15:36 | 37.74412 | -25.70448 | 252 ft | 17 kts | 293° |
| 2026-04-28 15:36 | 37.74475 | -25.70607 | 256 ft | 23 kts | 303° |
| 2026-04-28 15:36 | 37.74496 | -25.70668 | 259 ft | 0 kts | 251° |
| 2026-04-28 15:36 | 37.74490 | -25.70668 | 259 ft | 2 kts | 166° |
| 2026-04-28 15:37 | 37.74483 | -25.70651 | 258 ft | 16 kts | 119° |
| 2026-04-28 15:37 | 37.74300 | -25.70078 | 235 ft | 122 kts | 111° |
| 2026-04-28 15:37 | 37.73889 | -25.68817 | 640 ft | 176 kts | 114° |
| 2026-04-28 15:37 | 37.73556 | -25.67795 | 1269 ft | 195 kts | 112° |
| 2026-04-28 15:38 | 37.72872 | -25.65568 | 2978 ft | 215 kts | 112° |
| 2026-04-28 15:38 | 37.72296 | -25.63717 | 4194 ft | 240 kts | 112° |
| 2026-04-28 15:38 | 37.71640 | -25.61653 | 5364 ft | 266 kts | 112° |
| 2026-04-28 15:38 | 37.70939 | -25.59446 | 6897 ft | 273 kts | 112° |
| 2026-04-28 15:39 | 37.70221 | -25.57176 | 8410 ft | 282 kts | 112° |
| 2026-04-28 15:39 | 37.69484 | -25.54842 | 9829 ft | 290 kts | 112° |
| 2026-04-28 15:39 | 37.68710 | -25.52405 | 10932 ft | 312 kts | 112° |
| 2026-04-28 15:39 | 37.67929 | -25.49749 | 11960 ft | 329 kts | 105° |
| 2026-04-28 15:40 | 37.67601 | -25.46872 | 13317 ft | 336 kts | 92° |
| 2026-04-28 15:40 | 37.67684 | -25.44906 | 14087 ft | 342 kts | 83° |
| 2026-04-28 15:40 | 37.68081 | -25.41916 | 15213 ft | 349 kts | 80° |
| 2026-04-28 15:40 | 37.68493 | -25.38860 | 16269 ft | 356 kts | 81° |
| 2026-04-28 15:41 | 37.69037 | -25.34713 | 17584 ft | 365 kts | 81° |
| 2026-04-28 15:41 | 37.69318 | -25.32558 | 18217 ft | 370 kts | 81° |
| 2026-04-28 15:41 | 37.69736 | -25.29374 | 19100 ft | 376 kts | 81° |
| 2026-04-28 15:41 | 37.70173 | -25.26042 | 19960 ft | 382 kts | 81° |
| 2026-04-28 15:42 | 37.70603 | -25.22750 | 20749 ft | 388 kts | 81° |
| 2026-04-28 15:42 | 37.71045 | -25.19360 | 21518 ft | 394 kts | 81° |
| 2026-04-28 15:42 | 37.71493 | -25.15912 | 22251 ft | 399 kts | 81° |
| 2026-04-28 15:42 | 37.71945 | -25.12427 | 22948 ft | 405 kts | 81° |
| 2026-04-28 15:43 | 37.72401 | -25.08897 | 23608 ft | 410 kts | 81° |
| 2026-04-28 15:43 | 37.72863 | -25.05322 | 24235 ft | 415 kts | 81° |
| 2026-04-28 15:43 | 37.73329 | -25.01699 | 24832 ft | 420 kts | 81° |
| 2026-04-28 15:43 | 37.73799 | -24.98035 | 25399 ft | 424 kts | 81° |
| 2026-04-28 15:44 | 37.74275 | -24.94326 | 25938 ft | 429 kts | 81° |
| 2026-04-28 15:44 | 37.74751 | -24.90594 | 26450 ft | 433 kts | 81° |
| 2026-04-28 15:44 | 37.75233 | -24.86813 | 26938 ft | 437 kts | 81° |
| 2026-04-28 15:44 | 37.75717 | -24.83000 | 27403 ft | 441 kts | 81° |
| 2026-04-28 15:45 | 37.76199 | -24.79199 | 27843 ft | 445 kts | 81° |
| 2026-04-28 15:45 | 37.76689 | -24.75325 | 28272 ft | 449 kts | 81° |
| 2026-04-28 15:45 | 37.77182 | -24.71415 | 28679 ft | 452 kts | 81° |
| 2026-04-28 15:45 | 37.77677 | -24.67471 | 29068 ft | 456 kts | 81° |
| 2026-04-28 15:46 | 37.78175 | -24.63502 | 29438 ft | 459 kts | 81° |
| 2026-04-28 15:46 | 37.78675 | -24.59501 | 29793 ft | 462 kts | 81° |
| 2026-04-28 15:46 | 37.79177 | -24.55477 | 30130 ft | 465 kts | 81° |
| 2026-04-28 15:46 | 37.79681 | -24.51421 | 30452 ft | 468 kts | 81° |
| 2026-04-28 15:47 | 37.80187 | -24.47338 | 30754 ft | 471 kts | 81° |
| 2026-04-28 15:47 | 37.80694 | -24.43235 | 31040 ft | 474 kts | 81° |
| 2026-04-28 15:47 | 37.81202 | -24.39110 | 31311 ft | 476 kts | 81° |
| 2026-04-28 15:47 | 37.81712 | -24.34954 | 31566 ft | 479 kts | 81° |
| 2026-04-28 15:48 | 37.82223 | -24.30787 | 31810 ft | 481 kts | 81° |
| 2026-04-28 15:48 | 37.82735 | -24.26592 | 32038 ft | 483 kts | 81° |
| 2026-04-28 15:48 | 37.83247 | -24.22385 | 32257 ft | 485 kts | 81° |
| 2026-04-28 15:48 | 37.83760 | -24.18151 | 32462 ft | 487 kts | 81° |
| 2026-04-28 15:49 | 37.84274 | -24.13902 | 32657 ft | 489 kts | 81° |
| 2026-04-28 15:49 | 37.84789 | -24.09639 | 32845 ft | 491 kts | 81° |
| 2026-04-28 15:49 | 37.85303 | -24.05356 | 33050 ft | 492 kts | 81° |
| 2026-04-28 15:49 | 37.85816 | -24.01078 | 33311 ft | 491 kts | 82° |
| 2026-04-28 15:50 | 37.86319 | -23.96863 | 33543 ft | 491 kts | 82° |
| 2026-04-28 15:50 | 37.86829 | -23.92585 | 33772 ft | 491 kts | 82° |
| 2026-04-28 15:50 | 37.87336 | -23.88310 | 33992 ft | 491 kts | 82° |
| 2026-04-28 15:50 | 37.87843 | -23.84030 | 34205 ft | 491 kts | 82° |
| 2026-04-28 15:51 | 37.88348 | -23.79745 | 34412 ft | 491 kts | 82° |
| 2026-04-28 15:51 | 37.88850 | -23.75475 | 34608 ft | 491 kts | 82° |
| 2026-04-28 15:51 | 37.89352 | -23.71195 | 34802 ft | 491 kts | 82° |
| 2026-04-28 15:51 | 37.89852 | -23.66913 | 34986 ft | 491 kts | 82° |
| 2026-04-28 15:52 | 37.90348 | -23.62647 | 35164 ft | 490 kts | 82° |
| 2026-04-28 15:52 | 37.90844 | -23.58367 | 35340 ft | 490 kts | 82° |
| 2026-04-28 15:52 | 37.91340 | -23.54086 | 35513 ft | 490 kts | 82° |
| 2026-04-28 15:52 | 37.91834 | -23.49809 | 35682 ft | 490 kts | 82° |
| 2026-04-28 15:53 | 37.92325 | -23.45538 | 35847 ft | 490 kts | 82° |
| 2026-04-28 15:53 | 37.92808 | -23.41321 | 36008 ft | 490 kts | 82° |
| 2026-04-28 15:53 | 37.93296 | -23.37042 | 36167 ft | 490 kts | 82° |
| 2026-04-28 15:53 | 37.93782 | -23.32770 | 36325 ft | 490 kts | 82° |
| 2026-04-28 15:54 | 37.94257 | -23.28587 | 37399 ft | 465 kts | 82° |
| 2026-04-28 15:54 | 37.94708 | -23.24580 | 38121 ft | 456 kts | 82° |
| 2026-04-28 15:54 | 37.94940 | -23.20574 | 38279 ft | 457 kts | 88° |
| 2026-04-28 15:54 | 37.95038 | -23.16547 | 38514 ft | 457 kts | 88° |
| 2026-04-28 15:55 | 37.95142 | -23.12532 | 38740 ft | 456 kts | 88° |
| 2026-04-28 15:55 | 37.95267 | -23.08510 | 38957 ft | 456 kts | 88° |
| 2026-04-28 15:55 | 37.95388 | -23.04490 | 39172 ft | 456 kts | 88° |
| 2026-04-28 15:55 | 37.95496 | -23.00475 | 39385 ft | 456 kts | 88° |
| 2026-04-28 15:56 | 37.95601 | -22.96505 | 39593 ft | 456 kts | 88° |
| 2026-04-28 15:56 | 37.95712 | -22.92491 | 39800 ft | 456 kts | 88° |
| 2026-04-28 15:56 | 37.95822 | -22.88473 | 40005 ft | 456 kts | 88° |
| 2026-04-28 15:56 | 37.95928 | -22.84453 | 40204 ft | 456 kts | 88° |
| 2026-04-28 15:57 | 37.96033 | -22.80441 | 40393 ft | 456 kts | 88° |
| 2026-04-28 15:57 | 37.96137 | -22.76423 | 40580 ft | 456 kts | 88° |
| 2026-04-28 15:57 | 37.96240 | -22.72409 | 40766 ft | 455 kts | 88° |
| 2026-04-28 15:57 | 37.96340 | -22.68400 | 40948 ft | 455 kts | 88° |
| 2026-04-28 15:58 | 37.96440 | -22.64391 | 41123 ft | 455 kts | 88° |
| 2026-04-28 15:58 | 37.96537 | -22.60431 | 41295 ft | 455 kts | 88° |
| 2026-04-28 15:58 | 37.96634 | -22.56423 | 41467 ft | 455 kts | 88° |
| 2026-04-28 15:58 | 37.96729 | -22.52418 | 41636 ft | 455 kts | 88° |
| 2026-04-28 15:59 | 37.96823 | -22.48406 | 41804 ft | 455 kts | 88° |
| 2026-04-28 15:59 | 37.96916 | -22.44390 | 41970 ft | 455 kts | 88° |
| 2026-04-28 15:59 | 37.97008 | -22.40384 | 42134 ft | 455 kts | 88° |
| 2026-04-28 15:59 | 37.97098 | -22.36379 | 42295 ft | 455 kts | 89° |
| 2026-04-28 16:00 | 37.97186 | -22.32374 | 42455 ft | 455 kts | 89° |
| 2026-04-28 16:00 | 37.97274 | -22.28364 | 42611 ft | 454 kts | 89° |
| 2026-04-28 16:00 | 37.97360 | -22.24357 | 42762 ft | 454 kts | 89° |
| 2026-04-28 16:00 | 37.97444 | -22.20354 | 42912 ft | 454 kts | 89° |
| 2026-04-28 16:01 | 37.97527 | -22.16348 | 43059 ft | 454 kts | 89° |
| 2026-04-28 16:01 | 37.97609 | -22.12344 | 43205 ft | 454 kts | 89° |
| 2026-04-28 16:01 | 37.97690 | -22.08346 | 43349 ft | 454 kts | 89° |
| 2026-04-28 16:01 | 37.97768 | -22.04338 | 43492 ft | 454 kts | 89° |
| 2026-04-28 16:02 | 37.97846 | -22.00337 | 43632 ft | 454 kts | 89° |
| 2026-04-28 16:02 | 37.97922 | -21.96336 | 43771 ft | 454 kts | 89° |
| 2026-04-28 16:02 | 37.97997 | -21.92385 | 43906 ft | 454 kts | 89° |
| 2026-04-28 16:02 | 37.98070 | -21.88389 | 44041 ft | 454 kts | 89° |
| 2026-04-28 16:03 | 37.98142 | -21.84385 | 44175 ft | 454 kts | 89° |
| 2026-04-28 16:03 | 37.98213 | -21.80384 | 44305 ft | 454 kts | 89° |
| 2026-04-28 16:03 | 37.98283 | -21.76384 | 44430 ft | 454 kts | 89° |
| 2026-04-28 16:03 | 37.98351 | -21.72391 | 44555 ft | 454 kts | 89° |
| 2026-04-28 16:04 | 37.98418 | -21.68387 | 44679 ft | 454 kts | 89° |
| 2026-04-28 16:04 | 37.98483 | -21.64368 | 44702 ft | 456 kts | 89° |
| 2026-04-28 16:04 | 37.98612 | -21.56283 | 44708 ft | 461 kts | 89° |
| 2026-04-28 16:05 | 37.98736 | -21.48107 | 44717 ft | 466 kts | 89° |
| 2026-04-28 16:05 | 37.98855 | -21.39893 | 44724 ft | 471 kts | 89° |
| 2026-04-28 16:06 | 37.98969 | -21.31535 | 44731 ft | 475 kts | 89° |
| 2026-04-28 16:06 | 37.99080 | -21.23121 | 44737 ft | 479 kts | 89° |
| 2026-04-28 16:07 | 37.99184 | -21.14636 | 44742 ft | 483 kts | 89° |
| 2026-04-28 16:08 | 37.99331 | -21.01821 | 44859 ft | 485 kts | 89° |
| 2026-04-28 16:08 | 37.99421 | -20.93271 | 45001 ft | 485 kts | 89° |
| 2026-04-28 16:09 | 37.99545 | -20.80369 | 44999 ft | 490 kts | 89° |
| 2026-04-28 16:10 | 37.99655 | -20.67418 | 45005 ft | 494 kts | 90° |
| 2026-04-28 16:10 | 37.99753 | -20.54300 | 45010 ft | 497 kts | 90° |
| 2026-04-28 16:11 | 37.99865 | -20.36759 | 45008 ft | 501 kts | 89° |
| 2026-04-28 16:12 | 37.99917 | -20.23473 | 45009 ft | 503 kts | 90° |
| 2026-04-28 16:13 | 37.99975 | -20.10128 | 45009 ft | 506 kts | 90° |
| 2026-04-28 16:14 | 38.00174 | -19.92260 | 45009 ft | 508 kts | 89° |
| 2026-04-28 16:15 | 38.00521 | -19.74315 | 45009 ft | 510 kts | 89° |
| 2026-04-28 16:15 | 38.00683 | -19.65308 | 45008 ft | 512 kts | 89° |
| 2026-04-28 16:16 | 38.00924 | -19.51806 | 45008 ft | 513 kts | 89° |
| 2026-04-28 16:17 | 38.01148 | -19.38205 | 45009 ft | 516 kts | 89° |
| 2026-04-28 16:17 | 38.01286 | -19.29043 | 45007 ft | 522 kts | 89° |
| 2026-04-28 16:18 | 38.01426 | -19.19784 | 45010 ft | 528 kts | 89° |
| 2026-04-28 16:18 | 38.01557 | -19.10426 | 45009 ft | 533 kts | 89° |
| 2026-04-28 16:19 | 38.01677 | -19.00964 | 45008 ft | 538 kts | 89° |
| 2026-04-28 16:19 | 38.01802 | -18.91445 | 45009 ft | 542 kts | 89° |
| 2026-04-28 16:20 | 38.01907 | -18.81863 | 45010 ft | 544 kts | 89° |
| 2026-04-28 16:20 | 38.02017 | -18.72417 | 45000 ft | 534 kts | 89° |
| 2026-04-28 16:21 | 38.02105 | -18.63045 | 44992 ft | 530 kts | 89° |
| 2026-04-28 16:21 | 38.02194 | -18.53695 | 44991 ft | 530 kts | 89° |
| 2026-04-28 16:22 | 38.02271 | -18.44356 | 44991 ft | 529 kts | 89° |
| 2026-04-28 16:22 | 38.02342 | -18.35011 | 44991 ft | 529 kts | 90° |
| 2026-04-28 16:23 | 38.02406 | -18.25672 | 44990 ft | 529 kts | 90° |
| 2026-04-28 16:23 | 38.02462 | -18.16350 | 44990 ft | 528 kts | 90° |
| 2026-04-28 16:24 | 38.02510 | -18.07102 | 44990 ft | 528 kts | 90° |
| 2026-04-28 16:24 | 38.02551 | -17.97780 | 44992 ft | 528 kts | 90° |
| 2026-04-28 16:25 | 38.02585 | -17.88463 | 44992 ft | 527 kts | 90° |
| 2026-04-28 16:25 | 38.02612 | -17.79156 | 44992 ft | 527 kts | 90° |
| 2026-04-28 16:26 | 38.02631 | -17.69855 | 44992 ft | 527 kts | 90° |
| 2026-04-28 16:26 | 38.02643 | -17.60620 | 44992 ft | 527 kts | 90° |
| 2026-04-28 16:27 | 38.02648 | -17.51323 | 44992 ft | 527 kts | 90° |
| 2026-04-28 16:28 | 38.02642 | -17.37370 | 44992 ft | 527 kts | 90° |
| 2026-04-28 16:28 | 38.02628 | -17.28091 | 44992 ft | 526 kts | 90° |
| 2026-04-28 16:29 | 38.02598 | -17.15729 | 44992 ft | 526 kts | 90° |
| 2026-04-28 16:30 | 38.02544 | -17.00283 | 44992 ft | 526 kts | 90° |
| 2026-04-28 16:30 | 38.02508 | -16.92514 | 44992 ft | 526 kts | 90° |
| 2026-04-28 16:31 | 38.02460 | -16.83250 | 44991 ft | 525 kts | 90° |
| 2026-04-28 16:31 | 38.02404 | -16.73994 | 44990 ft | 524 kts | 90° |
| 2026-04-28 16:32 | 38.02341 | -16.64823 | 44992 ft | 523 kts | 91° |
| 2026-04-28 16:32 | 38.02233 | -16.50995 | 44991 ft | 522 kts | 91° |
| 2026-04-28 16:33 | 38.02166 | -16.43333 | 44991 ft | 522 kts | 91° |
| 2026-04-28 16:33 | 38.02064 | -16.32577 | 44990 ft | 521 kts | 91° |
| 2026-04-28 16:34 | 38.01969 | -16.23388 | 44992 ft | 521 kts | 91° |
| 2026-04-28 16:34 | 38.01868 | -16.14270 | 44992 ft | 520 kts | 91° |
| 2026-04-28 16:35 | 38.01759 | -16.05094 | 44992 ft | 520 kts | 91° |
| 2026-04-28 16:35 | 38.01643 | -15.95925 | 44991 ft | 519 kts | 91° |
| 2026-04-28 16:36 | 38.01520 | -15.86761 | 44991 ft | 519 kts | 91° |
| 2026-04-28 16:36 | 38.01390 | -15.77653 | 44991 ft | 519 kts | 91° |
| 2026-04-28 16:37 | 38.01253 | -15.68504 | 44991 ft | 519 kts | 91° |
| 2026-04-28 16:38 | 38.01034 | -15.54776 | 44990 ft | 518 kts | 91° |
| 2026-04-28 16:38 | 38.00879 | -15.45648 | 44990 ft | 518 kts | 91° |
| 2026-04-28 16:39 | 38.00718 | -15.36504 | 44990 ft | 518 kts | 91° |
| 2026-04-28 16:39 | 38.00549 | -15.27377 | 44990 ft | 518 kts | 91° |
| 2026-04-28 16:40 | 38.00373 | -15.18243 | 44990 ft | 518 kts | 91° |
| 2026-04-28 16:40 | 38.00190 | -15.09116 | 44990 ft | 518 kts | 91° |
| 2026-04-28 16:41 | 38.00104 | -15.00000 | 44973 ft | 518 kts | 86° |
| 2026-04-28 16:41 | 38.01185 | -14.90970 | 44965 ft | 518 kts | 81° |
| 2026-04-28 16:42 | 38.02347 | -14.82012 | 44968 ft | 518 kts | 81° |
| 2026-04-28 16:42 | 38.03514 | -14.72997 | 44970 ft | 518 kts | 81° |
| 2026-04-28 16:43 | 38.04670 | -14.63991 | 44971 ft | 517 kts | 81° |
| 2026-04-28 16:43 | 38.05822 | -14.54970 | 44973 ft | 517 kts | 81° |
| 2026-04-28 16:44 | 38.06965 | -14.45956 | 44975 ft | 517 kts | 81° |
| 2026-04-28 16:44 | 38.08103 | -14.36926 | 44977 ft | 517 kts | 81° |
| 2026-04-28 16:45 | 38.09225 | -14.27971 | 44979 ft | 517 kts | 81° |
| 2026-04-28 16:45 | 38.10350 | -14.18934 | 44981 ft | 517 kts | 81° |
| 2026-04-28 16:46 | 38.11464 | -14.09922 | 44984 ft | 517 kts | 81° |
| 2026-04-28 16:46 | 38.12556 | -14.01030 | 44986 ft | 517 kts | 81° |
| 2026-04-28 16:47 | 38.13660 | -13.91989 | 44900 ft | 519 kts | 81° |
| 2026-04-28 16:47 | 38.14213 | -13.87430 | 44606 ft | 525 kts | 81° |
| 2026-04-28 16:47 | 38.14771 | -13.82821 | 44268 ft | 532 kts | 81° |
| 2026-04-28 16:47 | 38.15326 | -13.78219 | 43921 ft | 534 kts | 81° |
| 2026-04-28 16:48 | 38.16100 | -13.73561 | 43553 ft | 531 kts | 74° |
| 2026-04-28 16:48 | 38.17238 | -13.69178 | 43213 ft | 528 kts | 71° |
| 2026-04-28 16:48 | 38.18413 | -13.64763 | 42861 ft | 525 kts | 71° |
| 2026-04-28 16:48 | 38.19574 | -13.60352 | 42511 ft | 525 kts | 71° |
| 2026-04-28 16:49 | 38.20731 | -13.55937 | 42163 ft | 527 kts | 71° |
| 2026-04-28 16:49 | 38.21893 | -13.51513 | 41813 ft | 529 kts | 71° |
| 2026-04-28 16:49 | 38.23065 | -13.47057 | 41460 ft | 531 kts | 71° |
| 2026-04-28 16:49 | 38.24234 | -13.42592 | 41106 ft | 533 kts | 72° |
| 2026-04-28 16:50 | 38.25403 | -13.38113 | 40751 ft | 533 kts | 72° |
| 2026-04-28 16:50 | 38.26570 | -13.33640 | 40396 ft | 532 kts | 72° |
| 2026-04-28 16:50 | 38.27732 | -13.29181 | 40043 ft | 530 kts | 72° |
| 2026-04-28 16:50 | 38.28876 | -13.24780 | 39695 ft | 529 kts | 72° |
| 2026-04-28 16:51 | 38.30027 | -13.20342 | 39344 ft | 528 kts | 72° |
| 2026-04-28 16:51 | 38.31178 | -13.15898 | 38993 ft | 528 kts | 72° |
| 2026-04-28 16:51 | 38.32330 | -13.11446 | 38642 ft | 530 kts | 72° |
| 2026-04-28 16:51 | 38.33484 | -13.06975 | 38289 ft | 531 kts | 72° |
| 2026-04-28 16:52 | 38.34638 | -13.02495 | 37935 ft | 533 kts | 72° |
| 2026-04-28 16:52 | 38.35792 | -12.98001 | 37581 ft | 534 kts | 72° |
| 2026-04-28 16:52 | 38.36950 | -12.93501 | 37225 ft | 534 kts | 72° |
| 2026-04-28 16:52 | 38.38103 | -12.88999 | 36870 ft | 535 kts | 72° |
| 2026-04-28 16:53 | 38.39256 | -12.84489 | 36514 ft | 535 kts | 72° |
| 2026-04-28 16:53 | 38.40407 | -12.79977 | 36158 ft | 535 kts | 72° |
| 2026-04-28 16:53 | 38.41559 | -12.75463 | 35802 ft | 535 kts | 72° |
| 2026-04-28 16:53 | 38.42708 | -12.70946 | 35446 ft | 535 kts | 72° |
| 2026-04-28 16:54 | 38.43854 | -12.66433 | 35090 ft | 535 kts | 72° |
| 2026-04-28 16:54 | 38.45001 | -12.61904 | 34733 ft | 535 kts | 72° |
| 2026-04-28 16:54 | 38.46144 | -12.57386 | 34378 ft | 536 kts | 72° |
| 2026-04-28 16:54 | 38.46901 | -12.54391 | 34142 ft | 536 kts | 72° |
| 2026-04-28 16:55 | 38.48429 | -12.48332 | 33666 ft | 536 kts | 72° |
| 2026-04-28 16:55 | 38.49570 | -12.43798 | 33309 ft | 536 kts | 72° |
| 2026-04-28 16:55 | 38.50708 | -12.39266 | 32953 ft | 536 kts | 72° |
| 2026-04-28 16:55 | 38.51845 | -12.34732 | 32597 ft | 536 kts | 72° |
| 2026-04-28 16:56 | 38.52978 | -12.30204 | 32241 ft | 536 kts | 72° |
| 2026-04-28 16:56 | 38.54112 | -12.25660 | 31884 ft | 536 kts | 72° |
| 2026-04-28 16:56 | 38.55242 | -12.21130 | 31528 ft | 536 kts | 72° |
| 2026-04-28 16:56 | 38.56360 | -12.16636 | 31175 ft | 537 kts | 72° |
| 2026-04-28 16:57 | 38.57491 | -12.12083 | 30818 ft | 537 kts | 72° |
| 2026-04-28 16:57 | 38.58620 | -12.07526 | 30461 ft | 538 kts | 72° |
| 2026-04-28 16:57 | 38.59749 | -12.02964 | 30103 ft | 539 kts | 72° |
| 2026-04-28 16:57 | 38.60876 | -11.98401 | 29746 ft | 539 kts | 72° |
| 2026-04-28 16:58 | 38.62005 | -11.93820 | 29386 ft | 539 kts | 72° |
| 2026-04-28 16:58 | 38.63131 | -11.89251 | 29028 ft | 537 kts | 72° |
| 2026-04-28 16:58 | 38.64248 | -11.84697 | 28671 ft | 532 kts | 72° |
| 2026-04-28 16:58 | 38.65348 | -11.80204 | 28319 ft | 527 kts | 72° |
| 2026-04-28 16:59 | 38.66439 | -11.75748 | 27970 ft | 522 kts | 73° |
| 2026-04-28 16:59 | 38.67521 | -11.71316 | 27625 ft | 521 kts | 73° |
| 2026-04-28 16:59 | 38.68585 | -11.66952 | 27284 ft | 520 kts | 73° |
| 2026-04-28 16:59 | 38.69656 | -11.62547 | 26939 ft | 516 kts | 73° |
| 2026-04-28 17:00 | 38.70719 | -11.58173 | 26597 ft | 512 kts | 73° |
| 2026-04-28 17:00 | 38.71769 | -11.53842 | 26259 ft | 508 kts | 73° |
| 2026-04-28 17:00 | 38.72811 | -11.49537 | 25923 ft | 504 kts | 73° |
| 2026-04-28 17:00 | 38.73846 | -11.45248 | 25589 ft | 501 kts | 73° |
| 2026-04-28 17:01 | 38.74874 | -11.40986 | 25261 ft | 499 kts | 73° |
| 2026-04-28 17:01 | 38.75893 | -11.36751 | 24935 ft | 496 kts | 73° |
| 2026-04-28 17:01 | 38.76908 | -11.32527 | 24610 ft | 494 kts | 73° |
| 2026-04-28 17:01 | 38.77916 | -11.28326 | 24287 ft | 492 kts | 73° |
| 2026-04-28 17:02 | 38.78916 | -11.24144 | 23965 ft | 489 kts | 73° |
| 2026-04-28 17:02 | 38.79576 | -11.21387 | 23754 ft | 487 kts | 73° |
| 2026-04-28 17:02 | 38.80896 | -11.15851 | 23330 ft | 484 kts | 73° |
| 2026-04-28 17:02 | 38.81876 | -11.11738 | 23015 ft | 481 kts | 73° |
| 2026-04-28 17:03 | 38.83734 | -11.03571 | 22380 ft | 465 kts | 78° |
| 2026-04-28 17:03 | 38.84208 | -10.99552 | 22044 ft | 457 kts | 84° |
| 2026-04-28 17:03 | 38.84458 | -10.95409 | 21738 ft | 470 kts | 86° |
| 2026-04-28 17:04 | 38.85132 | -10.87155 | 21319 ft | 466 kts | 81° |
| 2026-04-28 17:04 | 38.85688 | -10.83058 | 21120 ft | 465 kts | 81° |
| 2026-04-28 17:05 | 38.86478 | -10.74871 | 20718 ft | 460 kts | 84° |
| 2026-04-28 17:05 | 38.86880 | -10.70801 | 20517 ft | 458 kts | 82° |
| 2026-04-28 17:05 | 38.87332 | -10.66814 | 20319 ft | 457 kts | 82° |
| 2026-04-28 17:06 | 38.88153 | -10.58761 | 20054 ft | 454 kts | 83° |
| 2026-04-28 17:06 | 38.88551 | -10.54737 | 19930 ft | 455 kts | 83° |
| 2026-04-28 17:06 | 38.89385 | -10.46697 | 19679 ft | 452 kts | 83° |
| 2026-04-28 17:07 | 38.89782 | -10.42706 | 19553 ft | 450 kts | 83° |
| 2026-04-28 17:07 | 38.90179 | -10.38725 | 19428 ft | 448 kts | 83° |
| 2026-04-28 17:07 | 38.90579 | -10.34752 | 19302 ft | 447 kts | 83° |
| 2026-04-28 17:07 | 38.90975 | -10.30804 | 19177 ft | 446 kts | 83° |
| 2026-04-28 17:08 | 38.91369 | -10.26837 | 19051 ft | 446 kts | 83° |
| 2026-04-28 17:08 | 38.91761 | -10.22881 | 18927 ft | 447 kts | 83° |
| 2026-04-28 17:08 | 38.92152 | -10.18920 | 18802 ft | 447 kts | 83° |
| 2026-04-28 17:08 | 38.92542 | -10.14965 | 18676 ft | 444 kts | 83° |
| 2026-04-28 17:09 | 38.92928 | -10.11037 | 18550 ft | 442 kts | 83° |
| 2026-04-28 17:09 | 38.93310 | -10.07127 | 18425 ft | 441 kts | 83° |
| 2026-04-28 17:09 | 38.93689 | -10.03230 | 18299 ft | 439 kts | 83° |
| 2026-04-28 17:09 | 38.94069 | -9.99321 | 18175 ft | 440 kts | 83° |
| 2026-04-28 17:10 | 38.94446 | -9.95422 | 18048 ft | 440 kts | 83° |
| 2026-04-28 17:10 | 38.94823 | -9.91512 | 17529 ft | 438 kts | 83° |
| 2026-04-28 17:10 | 38.95189 | -9.87703 | 16958 ft | 421 kts | 83° |
| 2026-04-28 17:10 | 38.95537 | -9.84066 | 16415 ft | 411 kts | 83° |
| 2026-04-28 17:11 | 38.95884 | -9.80429 | 15873 ft | 409 kts | 83° |
| 2026-04-28 17:11 | 38.96228 | -9.76812 | 15331 ft | 408 kts | 83° |
| 2026-04-28 17:11 | 38.96570 | -9.73204 | 14790 ft | 404 kts | 83° |
| 2026-04-28 17:11 | 38.96906 | -9.69641 | 14256 ft | 399 kts | 83° |
| 2026-04-28 17:12 | 38.97239 | -9.66107 | 13726 ft | 395 kts | 83° |
| 2026-04-28 17:12 | 38.97567 | -9.62614 | 13203 ft | 392 kts | 83° |
| 2026-04-28 17:12 | 38.97892 | -9.59141 | 12683 ft | 389 kts | 83° |
| 2026-04-28 17:12 | 38.98212 | -9.55705 | 12233 ft | 385 kts | 83° |
| 2026-04-28 17:13 | 38.98528 | -9.52311 | 11826 ft | 382 kts | 83° |
| 2026-04-28 17:13 | 38.98736 | -9.50062 | 11494 ft | 382 kts | 83° |
| 2026-04-28 17:13 | 38.99043 | -9.46744 | 10995 ft | 362 kts | 83° |
| 2026-04-28 17:13 | 38.99419 | -9.42666 | 10384 ft | 333 kts | 83° |
| 2026-04-28 17:14 | 38.99682 | -9.39794 | 9956 ft | 315 kts | 83° |
| 2026-04-28 17:14 | 38.99932 | -9.37062 | 9550 ft | 301 kts | 83° |
| 2026-04-28 17:14 | 39.00173 | -9.34437 | 9179 ft | 291 kts | 83° |
| 2026-04-28 17:14 | 39.00330 | -9.32700 | 8933 ft | 290 kts | 84° |
| 2026-04-28 17:15 | 39.00565 | -9.30115 | 8552 ft | 292 kts | 83° |
| 2026-04-28 17:15 | 39.00801 | -9.27518 | 8162 ft | 293 kts | 84° |
| 2026-04-28 17:15 | 39.01035 | -9.24927 | 7774 ft | 291 kts | 84° |
| 2026-04-28 17:15 | 39.01267 | -9.22355 | 7393 ft | 288 kts | 84° |
| 2026-04-28 17:16 | 39.01495 | -9.19835 | 7020 ft | 286 kts | 84° |
| 2026-04-28 17:16 | 39.01719 | -9.17330 | 6654 ft | 277 kts | 84° |
| 2026-04-28 17:16 | 39.01937 | -9.14909 | 6309 ft | 268 kts | 84° |
| 2026-04-28 17:16 | 39.02141 | -9.12621 | 5974 ft | 237 kts | 84° |
| 2026-04-28 17:17 | 39.02246 | -9.10588 | 5698 ft | 215 kts | 94° |
| 2026-04-28 17:17 | 39.01927 | -9.08726 | 5436 ft | 211 kts | 111° |
| 2026-04-28 17:17 | 39.01238 | -9.07104 | 5172 ft | 205 kts | 127° |
| 2026-04-28 17:17 | 39.00158 | -9.05963 | 4756 ft | 205 kts | 162° |
| 2026-04-28 17:18 | 38.98760 | -9.05876 | 4483 ft | 199 kts | 185° |
| 2026-04-28 17:18 | 38.97389 | -9.06038 | 4211 ft | 197 kts | 186° |
| 2026-04-28 17:18 | 38.96033 | -9.06170 | 3949 ft | 194 kts | 183° |
| 2026-04-28 17:18 | 38.94690 | -9.06207 | 3692 ft | 192 kts | 181° |
| 2026-04-28 17:19 | 38.93376 | -9.06217 | 3440 ft | 190 kts | 181° |
| 2026-04-28 17:19 | 38.92069 | -9.06311 | 3253 ft | 184 kts | 190° |
| 2026-04-28 17:19 | 38.90878 | -9.06795 | 3169 ft | 175 kts | 201° |
| 2026-04-28 17:19 | 38.89748 | -9.07365 | 2907 ft | 168 kts | 202° |
| 2026-04-28 17:20 | 38.88787 | -9.07876 | 2613 ft | 145 kts | 204° |
| 2026-04-28 17:20 | 38.88159 | -9.08223 | 2309 ft | 146 kts | 203° |
| 2026-04-28 17:20 | 38.86955 | -9.08857 | 2011 ft | 141 kts | 204° |
| 2026-04-28 17:20 | 38.86046 | -9.09354 | 1829 ft | 143 kts | 203° |
| 2026-04-28 17:21 | 38.85128 | -9.09847 | 1635 ft | 142 kts | 203° |
| 2026-04-28 17:21 | 38.84218 | -9.10334 | 1448 ft | 142 kts | 203° |
| 2026-04-28 17:21 | 38.83308 | -9.10821 | 1259 ft | 142 kts | 203° |
| 2026-04-28 17:22 | 38.81488 | -9.11795 | 880 ft | 140 kts | 203° |
| 2026-04-28 17:22 | 38.80592 | -9.12276 | 695 ft | 139 kts | 203° |
| 2026-04-28 17:22 | 38.79719 | -9.12743 | 497 ft | 131 kts | 203° |
| 2026-04-28 17:23 | 38.78296 | -9.13505 | 359 ft | 74 kts | 203° |
| 2026-04-28 17:23 | 38.77909 | -9.13709 | 358 ft | 44 kts | 201° |
| 2026-04-28 17:23 | 38.77660 | -9.13763 | 357 ft | 35 kts | 178° |
| 2026-04-28 17:23 | 38.77482 | -9.13751 | 353 ft | 9 kts | 176° |
| 2026-04-28 17:24 | 38.77471 | -9.13750 | 353 ft | 0 kts | 175° |
| 2026-04-28 17:24 | 38.77466 | -9.13749 | 353 ft | 4 kts | 177° |
| 2026-04-28 17:24 | 38.77394 | -9.13761 | 350 ft | 15 kts | 199° |
| 2026-04-28 17:24 | 38.77287 | -9.13788 | 348 ft | 16 kts | 146° |
| 2026-04-28 17:25 | 38.77272 | -9.13653 | 345 ft | 19 kts | 73° |
| 2026-04-28 17:25 | 38.77352 | -9.13269 | 333 ft | 15 kts | 13° |
| 2026-04-28 17:25 | 38.77471 | -9.13291 | 332 ft | 19 kts | 344° |
| 2026-04-28 17:26 | 38.77616 | -9.13321 | 332 ft | 23 kts | 356° |
| 2026-04-28 17:26 | 38.77777 | -9.13351 | 339 ft | 22 kts | 345° |
| 2026-04-28 17:26 | 38.77826 | -9.13297 | 336 ft | 13 kts | 76° |
| 2026-04-28 17:26 | 38.77831 | -9.13273 | 335 ft | 1 kts | 76° |
| 2026-04-28 17:27 | 38.77832 | -9.13270 | 335 ft | 0 kts | 76° |